Time;durP1;ratioP1;P1;durP2;ratioP2;P2;SDS_P1;SDS_P2;PMS_P1;PMS_P2;Temp;Humidity;BMP_temperature;BMP_pressure;BME280_temperature;BME280_humidity;BME280_pressure;Samples;Min_cycle;Max_cycle;Signal;HPM_P1;HPM_P2
2024/04/07 00:00:23;;;;;;;;;;;;;;;;;;1039633;28;19966;-76
2024/04/07 00:00:53;;;;;;;;;;;;;;;;;;1036865;28;19917;-76
2024/04/07 00:01:23;;;;;;;;;;;;;;;;;;1033749;28;19914;-76
2024/04/07 00:01:53;;;;;;;;;;;;;;;;;;1034173;28;19914;-76
2024/04/07 00:02:24;;;;;;;;;;;;;;;;;;1040162;28;19913;-76
2024/04/07 00:02:55;;;;;;;;;;;;;;;;;;1041870;28;19962;-76
2024/04/07 00:03:26;;;;;;;;;;;;;;;;;;1042943;28;19913;-78
2024/04/07 00:03:56;;;;;;;;;;;;;;;;;;1041623;28;19913;-76
2024/04/07 00:04:26;;;;;;;;;;;;;;;;;;1041501;28;19913;-76
2024/04/07 00:04:57;;;;;;;;;;;;;;;;;;1044516;28;19935;-76
2024/04/07 00:05:27;;;;;;;;;;;;;;;;;;1044235;28;19917;-76
2024/04/07 00:05:57;;;;;;;;;;;;;;;;;;1042193;28;20040;-75
2024/04/07 00:06:27;;;;;;;;;;;;;;;;;;1046080;28;19912;-76
2024/04/07 00:06:58;;;;;;;;;;;;;;;;;;1046406;28;19912;-76
2024/04/07 00:07:28;;;;;;;;;;;;;;;;;;1041536;28;20122;-76
2024/04/07 00:07:58;;;;;;;;;;;;;;;;;;1044878;28;20011;-76
2024/04/07 00:08:29;;;;;;;;;;;;;;;;;;1040079;28;19920;-77
2024/04/07 00:08:59;;;;;;;;;;;;;;;;;;1040054;28;19925;-77
2024/04/07 00:09:29;;;;;;;;;;;;;;;;;;1044385;28;19964;-77
2024/04/07 00:09:59;;;;;;;;;;;;;;;;;;1042995;28;19964;-77
2024/04/07 00:10:30;;;;;;;;;;;;;;;;;;1037251;28;20282;-76
2024/04/07 00:11:00;;;;;;;;;;;;;;;;;;1042042;28;20423;-76
2024/04/07 00:11:30;;;;;;;;;;;;;;;;;;1041585;28;19956;-76
2024/04/07 00:12:01;;;;;;;;;;;;;;;;;;1042675;28;19913;-76
2024/04/07 00:12:31;;;;;;;;;;;;;;;;;;1042324;28;20467;-76
2024/04/07 00:13:02;;;;;;;;;;;;;;;;;;1041561;28;19913;-78
2024/04/07 00:13:32;;;;;;;;;;;;;;;;;;1046391;28;19919;-76
2024/04/07 00:14:02;;;;;;;;;;;;;;;;;;1045853;28;19913;-76
2024/04/07 00:14:32;;;;;;;;;;;;;;;;;;1046784;28;19919;-76
2024/04/07 00:15:02;;;;;;;;;;;;;;;;;;1047451;28;19912;-76
2024/04/07 00:15:33;;;;;;;;;;;;;;;;;;1042617;28;19916;-76
2024/04/07 00:16:03;;;;;;;;;;;;;;;;;;1042091;28;19943;-76
2024/04/07 00:16:33;;;;;;;;;;;;;;;;;;1046524;28;19913;-76
2024/04/07 00:17:05;;;;;;;;;;;;;;;;;;1044983;28;19912;-76
2024/04/07 00:17:35;;;;;;;;;;;;;;;;;;1041551;28;19935;-76
2024/04/07 00:18:07;;;;;;;;;;;;;;;;;;1042256;28;19963;-76
2024/04/07 00:18:38;;;;;;;;;;;;;;;;;;1038316;28;20417;-76
2024/04/07 00:19:08;;;;;;;;;;;;;;;;;;1039856;28;19913;-77
2024/04/07 00:19:40;;;;;;;;;;;;;;;;;;1044365;28;19936;-77
2024/04/07 00:20:11;;;;;;;;;;;;;;;;;;1042082;28;19981;-76
2024/04/07 00:20:42;;;;;;;;;;;;;;;;;;1041474;28;19916;-76
2024/04/07 00:21:12;;;;;;;;;;;;;;;;;;1043530;28;19917;-77
2024/04/07 00:21:43;;;;;;;;;;;;;;;;;;1046246;28;19913;-77
2024/04/07 00:22:13;;;;;;;;;;;;;;;;;;1047429;28;19913;-77
2024/04/07 00:22:44;;;;;;;;;;;;;;;;;;1045841;28;19970;-77
2024/04/07 00:23:14;;;;;;;;;;;;;;;;;;1043846;28;20368;-77
2024/04/07 00:23:44;;;;;;;;;;;;;;;;;;1039363;28;19963;-77
2024/04/07 00:24:14;;;;;;;;;;;;;;;;;;1038791;28;19920;-77
2024/04/07 00:24:44;;;;;;;;;;;;;;;;;;1043500;28;19927;-77
2024/04/07 00:25:16;;;;;;;;;;;;;;;;;;1046345;28;19912;-77
2024/04/07 00:25:46;;;;;;;;;;;;;;;;;;1047229;28;20003;-77
2024/04/07 00:26:17;;;;;;;;;;;;;;;;;;1047019;28;19918;-77
2024/04/07 00:26:47;;;;;;;;;;;;;;;;;;1044959;28;20396;-77
2024/04/07 00:27:17;;;;;;;;;;;;;;;;;;1041143;28;19913;-77
2024/04/07 00:27:48;;;;;;;;;;;;;;;;;;1045213;28;19917;-77
2024/04/07 00:28:18;;;;;;;;;;;;;;;;;;1045478;28;19967;-77
2024/04/07 00:28:48;;;;;;;;;;;;;;;;;;1045592;28;20011;-76
2024/04/07 00:29:18;;;;;;;;;;;;;;;;;;1042180;28;19920;-76
2024/04/07 00:29:50;;;;;;;;;;;;;;;;;;1043167;28;19908;-76
2024/04/07 00:30:20;;;;;;;;;;;;;;;;;;1047289;28;20284;-76
2024/04/07 00:30:50;;;;;;;;;;;;;;;;;;1047107;28;19912;-76
2024/04/07 00:31:20;;;;;;;;;;;;;;;;;;1047152;28;19951;-76
2024/04/07 00:31:50;;;;;;;;;;;;;;;;;;1047216;28;19999;-76
2024/04/07 00:32:21;;;;;;;;;;;;;;;;;;1042704;28;19913;-77
2024/04/07 00:32:51;;;;;;;;;;;;;;;;;;1044176;28;19920;-77
2024/04/07 00:33:21;;;;;;;;;;;;;;;;;;1042719;28;19917;-77
2024/04/07 00:33:53;;;;;;;;;;;;;;;;;;1048009;28;19919;-77
2024/04/07 00:34:23;;;;;;;;;;;;;;;;;;1045992;28;19912;-77
2024/04/07 00:34:53;;;;;;;;;;;;;;;;;;1044073;28;20405;-77
2024/04/07 00:35:23;;;;;;;;;;;;;;;;;;1042736;28;20456;-77
2024/04/07 00:35:54;;;;;;;;;;;;;;;;;;1042706;28;20365;-77
2024/04/07 00:36:25;;;;;;;;;;;;;;;;;;1040751;28;20404;-77
2024/04/07 00:36:55;;;;;;;;;;;;;;;;;;1043002;28;19983;-76
2024/04/07 00:37:28;;;;;;;;;;;;;;;;;;1043145;28;20377;-76
2024/04/07 00:37:58;;;;;;;;;;;;;;;;;;1041913;28;20475;-76
2024/04/07 00:38:28;;;;;;;;;;;;;;;;;;1042962;28;19952;-76
2024/04/07 00:38:59;;;;;;;;;;;;;;;;;;1044186;28;20047;-76
2024/04/07 00:39:29;;;;;;;;;;;;;;;;;;1041901;28;19917;-76
2024/04/07 00:39:59;;;;;;;;;;;;;;;;;;1043509;28;19917;-76
2024/04/07 00:40:29;;;;;;;;;;;;;;;;;;1046011;28;19913;-76
2024/04/07 00:40:59;;;;;;;;;;;;;;;;;;1045564;28;20432;-76
2024/04/07 00:41:30;;;;;;;;;;;;;;;;;;1045159;28;20402;-76
2024/04/07 00:42:00;;;;;;;;;;;;;;;;;;1042972;28;19913;-77
2024/04/07 00:42:30;;;;;;;;;;;;;;;;;;1040988;28;20401;-79
2024/04/07 00:43:00;;;;;;;;;;;;;;;;;;1040682;28;19913;-78
2024/04/07 00:43:31;;;;;;;;;;;;;;;;;;1040942;28;19963;-78
2024/04/07 00:44:01;;;;;;;;;;;;;;;;;;1043529;28;20344;-78
2024/04/07 00:44:31;;;;;;;;;;;;;;;;;;1043007;28;20344;-78
2024/04/07 00:45:01;;;;;;;;;;;;;;;;;;1042995;28;19963;-78
2024/04/07 00:45:32;;;;;;;;;;;;;;;;;;1048058;28;19913;-78
2024/04/07 00:46:02;;;;;;;;;;;;;;;;;;1048170;28;19912;-78
2024/04/07 00:46:32;;;;;;;;;;;;;;;;;;1048025;28;19913;-78
2024/04/07 00:47:02;;;;;;;;;;;;;;;;;;1046818;28;20011;-78
2024/04/07 00:47:33;;;;;;;;;;;;;;;;;;1044377;28;19933;-78
2024/04/07 00:48:03;;;;;;;;;;;;;;;;;;1042612;28;19921;-78
2024/04/07 00:48:33;;;;;;;;;;;;;;;;;;1042068;28;19913;-78
2024/04/07 00:49:03;;;;;;;;;;;;;;;;;;1043273;28;19913;-78
2024/04/07 00:49:34;;;;;;;;;;;;;;;;;;1043213;28;19971;-78
2024/04/07 00:50:04;;;;;;;;;;;;;;;;;;1044107;28;19913;-78
2024/04/07 00:50:34;;;;;;;;;;;;;;;;;;1042557;28;19917;-78
2024/04/07 00:51:05;;;;;;;;;;;;;;;;;;1044525;28;21174;-78
2024/04/07 00:51:35;;;;;;;;;;;;;;;;;;1045411;28;20027;-78
2024/04/07 00:52:05;;;;;;;;;;;;;;;;;;1043635;28;19923;-79
2024/04/07 00:52:35;;;;;;;;;;;;;;;;;;1046396;28;20015;-77
2024/04/07 00:53:06;;;;;;;;;;;;;;;;;;1047204;28;19959;-78
2024/04/07 00:53:36;;;;;;;;;;;;;;;;;;1047765;28;19912;-78
2024/04/07 00:54:06;;;;;;;;;;;;;;;;;;1047958;28;19958;-77
2024/04/07 00:54:37;;;;;;;;;;;;;;;;;;1045575;28;20020;-78
2024/04/07 00:55:08;;;;;;;;;;;;;;;;;;1042774;28;19952;-78
2024/04/07 00:55:38;;;;;;;;;;;;;;;;;;1043752;28;20412;-78
2024/04/07 00:56:08;;;;;;;;;;;;;;;;;;1040710;28;20506;-78
2024/04/07 00:56:38;;;;;;;;;;;;;;;;;;1041064;28;20353;-78
2024/04/07 00:57:09;;;;;;;;;;;;;;;;;;1043121;28;20373;-78
2024/04/07 00:57:39;;;;;;;;;;;;;;;;;;1047286;28;19913;-78
2024/04/07 00:58:10;;;;;;;;;;;;;;;;;;1045323;28;19962;-78
2024/04/07 00:58:40;;;;;;;;;;;;;;;;;;1046780;28;19917;-78
2024/04/07 00:59:10;;;;;;;;;;;;;;;;;;1047406;28;19935;-78
2024/04/07 00:59:40;;;;;;;;;;;;;;;;;;1042298;28;19909;-79
2024/04/07 01:00:11;;;;;;;;;;;;;;;;;;1043238;28;20003;-78
2024/04/07 01:00:43;;;;;;;;;;;;;;;;;;1043810;28;19917;-78
2024/04/07 01:01:14;;;;;;;;;;;;;;;;;;1048961;28;19913;-78
2024/04/07 01:01:44;;;;;;;;;;;;;;;;;;1047511;28;20014;-78
2024/04/07 01:02:14;;;;;;;;;;;;;;;;;;1045177;28;20457;-79
2024/04/07 01:02:44;;;;;;;;;;;;;;;;;;1045569;28;19912;-79
2024/04/07 01:03:15;;;;;;;;;;;;;;;;;;1041004;28;19953;-79
2024/04/07 01:03:45;;;;;;;;;;;;;;;;;;1036882;28;19918;-79
2024/04/07 01:04:15;;;;;;;;;;;;;;;;;;1041207;28;20270;-78
2024/04/07 01:04:45;;;;;;;;;;;;;;;;;;1040734;28;19913;-78
2024/04/07 01:05:15;;;;;;;;;;;;;;;;;;1040799;28;20320;-78
2024/04/07 01:05:46;;;;;;;;;;;;;;;;;;1043243;28;20270;-78
2024/04/07 01:06:16;;;;;;;;;;;;;;;;;;1043309;28;19919;-78
2024/04/07 01:06:46;;;;;;;;;;;;;;;;;;1042378;28;19917;-78
2024/04/07 01:07:16;;;;;;;;;;;;;;;;;;1044574;28;19913;-78
2024/04/07 01:07:47;;;;;;;;;;;;;;;;;;1044715;28;19984;-78
2024/04/07 01:08:17;;;;;;;;;;;;;;;;;;1044711;28;19912;-78
2024/04/07 01:08:47;;;;;;;;;;;;;;;;;;1042740;28;19967;-78
2024/04/07 01:09:17;;;;;;;;;;;;;;;;;;1042364;28;20443;-78
2024/04/07 01:09:48;;;;;;;;;;;;;;;;;;1043701;28;20452;-78
2024/04/07 01:10:18;;;;;;;;;;;;;;;;;;1042648;28;20376;-78
2024/04/07 01:10:48;;;;;;;;;;;;;;;;;;1045181;28;19936;-78
2024/04/07 01:11:18;;;;;;;;;;;;;;;;;;1045405;28;19912;-78
2024/04/07 01:11:48;;;;;;;;;;;;;;;;;;1045573;28;19913;-78
2024/04/07 01:12:19;;;;;;;;;;;;;;;;;;1045114;28;19919;-78
2024/04/07 01:12:49;;;;;;;;;;;;;;;;;;1045209;28;20011;-78
2024/04/07 01:13:24;;;;;;;;;;;;;;;;;;1045749;28;19917;-78
2024/04/07 01:13:54;;;;;;;;;;;;;;;;;;1043687;28;19913;-78
2024/04/07 01:14:24;;;;;;;;;;;;;;;;;;1040722;28;20376;-78
2024/04/07 01:14:55;;;;;;;;;;;;;;;;;;1040714;28;19917;-78
2024/04/07 01:15:25;;;;;;;;;;;;;;;;;;1041439;28;19917;-78
2024/04/07 01:15:55;;;;;;;;;;;;;;;;;;1046979;28;19961;-78
2024/04/07 01:16:26;;;;;;;;;;;;;;;;;;1047015;28;19912;-78
2024/04/07 01:16:56;;;;;;;;;;;;;;;;;;1047346;28;19936;-78
2024/04/07 01:17:26;;;;;;;;;;;;;;;;;;1041844;28;19913;-79
2024/04/07 01:17:59;;;;;;;;;;;;;;;;;;1034648;28;19913;-78
2024/04/07 01:18:30;;;;;;;;;;;;;;;;;;1041777;28;19996;-78
2024/04/07 01:19:00;;;;;;;;;;;;;;;;;;1040934;28;19999;-78
2024/04/07 01:19:30;;;;;;;;;;;;;;;;;;1045191;28;20280;-78
2024/04/07 01:20:00;;;;;;;;;;;;;;;;;;1046732;28;19916;-78
2024/04/07 01:20:30;;;;;;;;;;;;;;;;;;1045370;28;19959;-78
2024/04/07 01:21:01;;;;;;;;;;;;;;;;;;1045347;28;19978;-78
2024/04/07 01:21:31;;;;;;;;;;;;;;;;;;1046350;28;20331;-78
2024/04/07 01:22:01;;;;;;;;;;;;;;;;;;1045683;28;20342;-78
2024/04/07 01:22:31;;;;;;;;;;;;;;;;;;1045095;28;20305;-77
2024/04/07 01:23:01;;;;;;;;;;;;;;;;;;1042627;28;20674;-78
2024/04/07 01:23:32;;;;;;;;;;;;;;;;;;1042904;28;19952;-78
2024/04/07 01:24:02;;;;;;;;;;;;;;;;;;1042099;28;19912;-78
2024/04/07 01:24:32;;;;;;;;;;;;;;;;;;1043649;28;20018;-78
2024/04/07 01:25:02;;;;;;;;;;;;;;;;;;1045337;28;20427;-78
2024/04/07 01:25:33;;;;;;;;;;;;;;;;;;1045636;28;19913;-78
2024/04/07 01:26:03;;;;;;;;;;;;;;;;;;1043302;28;19913;-78
2024/04/07 01:26:33;;;;;;;;;;;;;;;;;;1043156;28;19913;-78
2024/04/07 01:27:03;;;;;;;;;;;;;;;;;;1047420;28;19919;-78
2024/04/07 01:27:33;;;;;;;;;;;;;;;;;;1041959;28;19913;-78
2024/04/07 01:28:04;;;;;;;;;;;;;;;;;;1044844;28;19966;-78
2024/04/07 01:28:35;;;;;;;;;;;;;;;;;;1044147;28;19919;-78
2024/04/07 01:29:06;;;;;;;;;;;;;;;;;;1042826;28;19917;-78
2024/04/07 01:29:36;;;;;;;;;;;;;;;;;;1043378;28;20312;-78
2024/04/07 01:30:06;;;;;;;;;;;;;;;;;;1042393;28;19912;-78
2024/04/07 01:30:37;;;;;;;;;;;;;;;;;;1044834;28;19913;-78
2024/04/07 01:31:07;;;;;;;;;;;;;;;;;;1041528;28;20397;-78
2024/04/07 01:31:37;;;;;;;;;;;;;;;;;;1045562;28;20019;-78
2024/04/07 01:32:07;;;;;;;;;;;;;;;;;;1045413;28;19913;-78
2024/04/07 01:32:38;;;;;;;;;;;;;;;;;;1044967;28;19913;-78
2024/04/07 01:33:08;;;;;;;;;;;;;;;;;;1043130;28;19917;-78
2024/04/07 01:33:39;;;;;;;;;;;;;;;;;;1044196;28;19944;-78
2024/04/07 01:34:09;;;;;;;;;;;;;;;;;;1045864;28;19912;-78
2024/04/07 01:34:40;;;;;;;;;;;;;;;;;;1047739;28;19960;-78
2024/04/07 01:35:10;;;;;;;;;;;;;;;;;;1048225;28;19974;-78
2024/04/07 01:35:40;;;;;;;;;;;;;;;;;;1046868;28;19956;-78
2024/04/07 01:36:10;;;;;;;;;;;;;;;;;;1047728;28;19912;-78
2024/04/07 01:36:41;;;;;;;;;;;;;;;;;;1045179;28;19952;-78
2024/04/07 01:37:11;;;;;;;;;;;;;;;;;;1045110;28;20058;-78
2024/04/07 01:37:41;;;;;;;;;;;;;;;;;;1042415;28;19913;-78
2024/04/07 01:38:11;;;;;;;;;;;;;;;;;;1043053;28;20363;-78
2024/04/07 01:38:42;;;;;;;;;;;;;;;;;;1043253;28;19947;-78
2024/04/07 01:39:12;;;;;;;;;;;;;;;;;;1039838;28;20003;-78
2024/04/07 01:39:42;;;;;;;;;;;;;;;;;;1043240;28;19951;-78
2024/04/07 01:40:12;;;;;;;;;;;;;;;;;;1041645;28;20020;-78
2024/04/07 01:40:42;;;;;;;;;;;;;;;;;;1042366;28;19915;-78
2024/04/07 01:41:13;;;;;;;;;;;;;;;;;;1046605;28;20402;-78
2024/04/07 01:41:43;;;;;;;;;;;;;;;;;;1043854;28;20472;-78
2024/04/07 01:42:13;;;;;;;;;;;;;;;;;;1043016;28;20439;-78
2024/04/07 01:42:43;;;;;;;;;;;;;;;;;;1042917;28;20404;-78
2024/04/07 01:43:14;;;;;;;;;;;;;;;;;;1039658;28;20124;-78
2024/04/07 01:43:44;;;;;;;;;;;;;;;;;;1046332;28;20427;-78
2024/04/07 01:44:14;;;;;;;;;;;;;;;;;;1046634;28;19920;-78
2024/04/07 01:44:44;;;;;;;;;;;;;;;;;;1047441;28;19913;-78
2024/04/07 01:45:15;;;;;;;;;;;;;;;;;;1046659;28;19960;-78
2024/04/07 01:45:45;;;;;;;;;;;;;;;;;;1045248;28;20011;-78
2024/04/07 01:46:15;;;;;;;;;;;;;;;;;;1045045;28;20007;-78
2024/04/07 01:46:45;;;;;;;;;;;;;;;;;;1043979;28;19913;-78
2024/04/07 01:47:16;;;;;;;;;;;;;;;;;;1042879;28;20035;-78
2024/04/07 01:47:46;;;;;;;;;;;;;;;;;;1042504;28;20276;-78
2024/04/07 01:48:16;;;;;;;;;;;;;;;;;;1044170;28;20285;-78
2024/04/07 01:48:46;;;;;;;;;;;;;;;;;;1047715;28;19974;-78
2024/04/07 01:49:17;;;;;;;;;;;;;;;;;;1049067;28;19961;-78
2024/04/07 01:49:47;;;;;;;;;;;;;;;;;;1048019;28;20372;-78
2024/04/07 01:50:17;;;;;;;;;;;;;;;;;;1048139;28;19912;-78
2024/04/07 01:50:47;;;;;;;;;;;;;;;;;;1042353;28;19912;-78
2024/04/07 01:51:17;;;;;;;;;;;;;;;;;;1043832;28;19962;-78
2024/04/07 01:51:48;;;;;;;;;;;;;;;;;;1043509;28;19913;-79
2024/04/07 01:52:18;;;;;;;;;;;;;;;;;;1046174;28;19913;-79
2024/04/07 01:52:48;;;;;;;;;;;;;;;;;;1047578;28;19935;-78
2024/04/07 01:53:18;;;;;;;;;;;;;;;;;;1046649;28;20355;-78
2024/04/07 01:53:49;;;;;;;;;;;;;;;;;;1044897;28;19920;-78
2024/04/07 01:54:19;;;;;;;;;;;;;;;;;;1042091;28;19913;-78
2024/04/07 01:54:49;;;;;;;;;;;;;;;;;;1040705;28;20315;-78
2024/04/07 01:55:20;;;;;;;;;;;;;;;;;;1040883;28;19965;-78
2024/04/07 01:55:52;;;;;;;;;;;;;;;;;;1042689;28;19913;-78
2024/04/07 01:56:23;;;;;;;;;;;;;;;;;;1042910;28;20026;-78
2024/04/07 01:56:53;;;;;;;;;;;;;;;;;;1042312;28;19913;-78
2024/04/07 01:57:23;;;;;;;;;;;;;;;;;;1043207;28;19913;-78
2024/04/07 01:57:53;;;;;;;;;;;;;;;;;;1044717;28;20023;-78
2024/04/07 01:58:24;;;;;;;;;;;;;;;;;;1045325;28;19912;-78
2024/04/07 01:58:54;;;;;;;;;;;;;;;;;;1045547;28;19962;-78
2024/04/07 01:59:24;;;;;;;;;;;;;;;;;;1044915;28;19917;-78
2024/04/07 01:59:55;;;;;;;;;;;;;;;;;;1045329;28;20487;-78
2024/04/07 02:00:25;;;;;;;;;;;;;;;;;;1044968;28;19923;-78
2024/04/07 02:00:55;;;;;;;;;;;;;;;;;;1042950;28;19917;-78
2024/04/07 02:01:25;;;;;;;;;;;;;;;;;;1041847;28;20434;-78
2024/04/07 02:01:56;;;;;;;;;;;;;;;;;;1044533;28;20320;-78
2024/04/07 02:02:27;;;;;;;;;;;;;;;;;;1047181;28;19912;-78
2024/04/07 02:02:58;;;;;;;;;;;;;;;;;;1046923;28;19913;-78
2024/04/07 02:03:28;;;;;;;;;;;;;;;;;;1046789;28;19923;-78
2024/04/07 02:03:58;;;;;;;;;;;;;;;;;;1046956;28;19912;-78
2024/04/07 02:04:28;;;;;;;;;;;;;;;;;;1043925;28;19913;-78
2024/04/07 02:04:59;;;;;;;;;;;;;;;;;;1043264;28;19913;-78
2024/04/07 02:05:29;;;;;;;;;;;;;;;;;;1044364;28;19912;-78
2024/04/07 02:06:00;;;;;;;;;;;;;;;;;;1045023;28;19916;-78
2024/04/07 02:06:30;;;;;;;;;;;;;;;;;;1044696;28;19927;-78
2024/04/07 02:07:01;;;;;;;;;;;;;;;;;;1043833;28;20365;-78
2024/04/07 02:07:31;;;;;;;;;;;;;;;;;;1043143;28;20375;-78
2024/04/07 02:08:03;;;;;;;;;;;;;;;;;;1041896;28;20288;-78
2024/04/07 02:08:34;;;;;;;;;;;;;;;;;;1040924;28;20460;-78
2024/04/07 02:09:06;;;;;;;;;;;;;;;;;;1045710;28;19963;-78
2024/04/07 02:09:36;;;;;;;;;;;;;;;;;;1045473;28;19913;-78
2024/04/07 02:10:08;;;;;;;;;;;;;;;;;;1045124;28;19931;-78
2024/04/07 02:10:38;;;;;;;;;;;;;;;;;;1044691;28;20365;-78
2024/04/07 02:11:09;;;;;;;;;;;;;;;;;;1046053;28;19912;-79
2024/04/07 02:11:39;;;;;;;;;;;;;;;;;;1044873;28;19924;-78
2024/04/07 02:12:09;;;;;;;;;;;;;;;;;;1045433;28;19912;-78
2024/04/07 02:12:39;;;;;;;;;;;;;;;;;;1043857;28;19939;-78
2024/04/07 02:13:10;;;;;;;;;;;;;;;;;;1045665;28;19966;-78
2024/04/07 02:13:40;;;;;;;;;;;;;;;;;;1046740;28;19927;-78
2024/04/07 02:14:10;;;;;;;;;;;;;;;;;;1045208;28;19959;-78
2024/04/07 02:14:40;;;;;;;;;;;;;;;;;;1045028;28;19916;-80
2024/04/07 02:15:10;;;;;;;;;;;;;;;;;;1042534;28;19913;-79
2024/04/07 02:15:41;;;;;;;;;;;;;;;;;;1043220;28;19913;-79
2024/04/07 02:16:11;;;;;;;;;;;;;;;;;;1048287;28;19919;-79
2024/04/07 02:16:41;;;;;;;;;;;;;;;;;;1043538;28;20007;-79
2024/04/07 02:17:11;;;;;;;;;;;;;;;;;;1044638;28;20367;-78
2024/04/07 02:17:42;;;;;;;;;;;;;;;;;;1044287;28;19948;-78
2024/04/07 02:18:12;;;;;;;;;;;;;;;;;;1040426;28;19917;-78
2024/04/07 02:18:42;;;;;;;;;;;;;;;;;;1044346;28;19913;-78
2024/04/07 02:19:13;;;;;;;;;;;;;;;;;;1046937;28;20016;-78
2024/04/07 02:19:43;;;;;;;;;;;;;;;;;;1041895;28;19935;-78
2024/04/07 02:20:16;;;;;;;;;;;;;;;;;;1044790;28;19916;-78
2024/04/07 02:20:46;;;;;;;;;;;;;;;;;;1045084;28;20393;-78
2024/04/07 02:21:17;;;;;;;;;;;;;;;;;;1041950;28;19912;-78
2024/04/07 02:21:47;;;;;;;;;;;;;;;;;;1042246;28;19917;-78
2024/04/07 02:22:18;;;;;;;;;;;;;;;;;;1043541;28;19920;-78
2024/04/07 02:22:48;;;;;;;;;;;;;;;;;;1043006;28;20000;-78
2024/04/07 02:23:19;;;;;;;;;;;;;;;;;;1045271;28;20027;-78
2024/04/07 02:23:49;;;;;;;;;;;;;;;;;;1043405;28;19984;-78
2024/04/07 02:24:19;;;;;;;;;;;;;;;;;;1041226;28;19916;-78
2024/04/07 02:24:49;;;;;;;;;;;;;;;;;;1039803;28;19913;-78
2024/04/07 02:25:20;;;;;;;;;;;;;;;;;;1040766;28;19913;-78
2024/04/07 02:25:50;;;;;;;;;;;;;;;;;;1037718;28;19929;-78
2024/04/07 02:26:21;;;;;;;;;;;;;;;;;;1037581;28;19937;-78
2024/04/07 02:26:52;;;;;;;;;;;;;;;;;;1034808;28;19914;-78
2024/04/07 02:27:22;;;;;;;;;;;;;;;;;;1034288;28;19924;-78
2024/04/07 02:27:53;;;;;;;;;;;;;;;;;;1039592;28;19920;-79
2024/04/07 02:28:23;;;;;;;;;;;;;;;;;;1038690;28;19913;-79
2024/04/07 02:28:53;;;;;;;;;;;;;;;;;;1041884;28;19920;-79
2024/04/07 02:29:24;;;;;;;;;;;;;;;;;;1040683;28;19921;-79
2024/04/07 02:29:54;;;;;;;;;;;;;;;;;;1040339;28;19913;-79
2024/04/07 02:30:24;;;;;;;;;;;;;;;;;;1040642;28;19920;-79
2024/04/07 02:30:54;;;;;;;;;;;;;;;;;;1043727;28;19913;-79
2024/04/07 02:31:25;;;;;;;;;;;;;;;;;;1044912;28;20497;-78
2024/04/07 02:31:55;;;;;;;;;;;;;;;;;;1036641;28;19917;-78
2024/04/07 02:32:26;;;;;;;;;;;;;;;;;;1036560;28;19917;-78
2024/04/07 02:32:56;;;;;;;;;;;;;;;;;;1036328;28;19914;-78
2024/04/07 02:33:26;;;;;;;;;;;;;;;;;;1038571;28;20055;-78
2024/04/07 02:33:56;;;;;;;;;;;;;;;;;;1043675;28;19912;-78
2024/04/07 02:34:27;;;;;;;;;;;;;;;;;;1043316;28;19913;-78
2024/04/07 02:34:57;;;;;;;;;;;;;;;;;;1042801;28;19912;-78
2024/04/07 02:35:27;;;;;;;;;;;;;;;;;;1044674;28;19935;-78
2024/04/07 02:35:57;;;;;;;;;;;;;;;;;;1043135;28;19936;-76
2024/04/07 02:36:27;;;;;;;;;;;;;;;;;;1042529;28;19913;-76
2024/04/07 02:36:58;;;;;;;;;;;;;;;;;;1047694;28;19912;-78
2024/04/07 02:37:28;;;;;;;;;;;;;;;;;;1047213;28;19916;-77
2024/04/07 02:37:58;;;;;;;;;;;;;;;;;;1047604;28;19975;-77
2024/04/07 02:38:28;;;;;;;;;;;;;;;;;;1047647;28;20354;-77
2024/04/07 02:38:59;;;;;;;;;;;;;;;;;;1042390;28;20393;-77
2024/04/07 02:39:29;;;;;;;;;;;;;;;;;;1046258;28;19912;-77
2024/04/07 02:40:00;;;;;;;;;;;;;;;;;;1046157;28;19916;-77
2024/04/07 02:40:30;;;;;;;;;;;;;;;;;;1041813;28;19913;-77
2024/04/07 02:41:00;;;;;;;;;;;;;;;;;;1043787;28;20418;-77
2024/04/07 02:41:30;;;;;;;;;;;;;;;;;;1038126;28;20306;-77
2024/04/07 02:42:01;;;;;;;;;;;;;;;;;;1040712;28;20404;-77
2024/04/07 02:42:31;;;;;;;;;;;;;;;;;;1045104;28;19959;-77
2024/04/07 02:43:03;;;;;;;;;;;;;;;;;;1040792;28;19975;-77
2024/04/07 02:43:33;;;;;;;;;;;;;;;;;;1039420;28;19913;-77
2024/04/07 02:44:03;;;;;;;;;;;;;;;;;;1040812;28;20000;-77
2024/04/07 02:48:07;;;;;;;;;;;;;;;;;;1043707;28;19913;-77
2024/04/07 02:48:37;;;;;;;;;;;;;;;;;;1044746;28;19917;-77
2024/04/07 02:49:07;;;;;;;;;;;;;;;;;;1042250;28;19921;-77
2024/04/07 02:49:38;;;;;;;;;;;;;;;;;;1042716;28;19913;-77
2024/04/07 02:50:09;;;;;;;;;;;;;;;;;;1042873;28;19983;-77
2024/04/07 02:50:40;;;;;;;;;;;;;;;;;;1039327;28;19968;-77
2024/04/07 02:51:10;;;;;;;;;;;;;;;;;;1042749;28;19917;-77
2024/04/07 02:51:41;;;;;;;;;;;;;;;;;;1042673;28;19920;-77
2024/04/07 02:52:11;;;;;;;;;;;;;;;;;;1043439;28;19920;-77
2024/04/07 02:52:42;;;;;;;;;;;;;;;;;;1040189;28;19913;-77
2024/04/07 02:53:12;;;;;;;;;;;;;;;;;;1040597;28;19913;-77
2024/04/07 02:53:42;;;;;;;;;;;;;;;;;;1036386;28;19917;-77
2024/04/07 02:54:12;;;;;;;;;;;;;;;;;;1040653;28;19913;-77
2024/04/07 02:54:43;;;;;;;;;;;;;;;;;;1044676;28;19938;-77
2024/04/07 02:55:13;;;;;;;;;;;;;;;;;;1045031;28;20361;-77
2024/04/07 02:55:43;;;;;;;;;;;;;;;;;;1045312;28;20448;-77
2024/04/07 02:56:15;;;;;;;;;;;;;;;;;;1044994;28;19924;-77
2024/04/07 02:56:45;;;;;;;;;;;;;;;;;;1044619;28;19982;-77
2024/04/07 02:57:16;;;;;;;;;;;;;;;;;;1044913;28;19912;-77
2024/04/07 02:57:46;;;;;;;;;;;;;;;;;;1042173;28;19917;-77
2024/04/07 02:58:16;;;;;;;;;;;;;;;;;;1046364;28;20031;-77
2024/04/07 02:58:46;;;;;;;;;;;;;;;;;;1046425;28;19948;-77
2024/04/07 02:59:17;;;;;;;;;;;;;;;;;;1047221;28;19970;-77
2024/04/07 02:59:47;;;;;;;;;;;;;;;;;;1044351;28;19914;-77
2024/04/07 03:00:17;;;;;;;;;;;;;;;;;;1040467;28;19917;-77
2024/04/07 03:00:47;;;;;;;;;;;;;;;;;;1039946;28;19913;-77
2024/04/07 03:01:18;;;;;;;;;;;;;;;;;;1040036;28;19913;-77
2024/04/07 03:01:48;;;;;;;;;;;;;;;;;;1041643;28;19921;-77
2024/04/07 03:02:20;;;;;;;;;;;;;;;;;;1045622;28;19962;-77
2024/04/07 03:02:51;;;;;;;;;;;;;;;;;;1047054;28;20387;-77
2024/04/07 03:03:21;;;;;;;;;;;;;;;;;;1047233;28;19935;-77
2024/04/07 03:03:52;;;;;;;;;;;;;;;;;;1045756;28;20272;-76
2024/04/07 03:04:22;;;;;;;;;;;;;;;;;;1048077;28;19980;-77
2024/04/07 03:04:53;;;;;;;;;;;;;;;;;;1046284;28;19920;-77
2024/04/07 03:05:23;;;;;;;;;;;;;;;;;;1046915;28;19935;-79
2024/04/07 03:05:54;;;;;;;;;;;;;;;;;;1046895;28;19912;-77
2024/04/07 03:06:24;;;;;;;;;;;;;;;;;;1047448;28;20266;-77
2024/04/07 03:06:56;;;;;;;;;;;;;;;;;;1046017;28;20335;-77
2024/04/07 03:07:27;;;;;;;;;;;;;;;;;;1047649;28;19912;-77
2024/04/07 03:07:57;;;;;;;;;;;;;;;;;;1044943;28;19913;-77
2024/04/07 03:08:27;;;;;;;;;;;;;;;;;;1040468;28;19920;-78
2024/04/07 03:08:57;;;;;;;;;;;;;;;;;;1040434;28;20000;-78
2024/04/07 03:09:27;;;;;;;;;;;;;;;;;;1040375;28;19920;-78
2024/04/07 03:09:58;;;;;;;;;;;;;;;;;;1045301;28;19923;-79
2024/04/07 03:10:28;;;;;;;;;;;;;;;;;;1044715;28;20475;-79
2024/04/07 03:10:58;;;;;;;;;;;;;;;;;;1043298;28;19968;-77
2024/04/07 03:11:29;;;;;;;;;;;;;;;;;;1042910;28;20624;-78
2024/04/07 03:11:59;;;;;;;;;;;;;;;;;;1047950;28;19919;-77
2024/04/07 03:12:29;;;;;;;;;;;;;;;;;;1046486;28;20007;-76
2024/04/07 03:12:59;;;;;;;;;;;;;;;;;;1047454;28;20296;-76
2024/04/07 03:13:30;;;;;;;;;;;;;;;;;;1047541;28;20423;-76
2024/04/07 03:14:01;;;;;;;;;;;;;;;;;;1041021;28;19928;-77
2024/04/07 03:14:31;;;;;;;;;;;;;;;;;;1042978;28;19966;-77
2024/04/07 03:15:03;;;;;;;;;;;;;;;;;;1043490;28;20339;-77
2024/04/07 03:15:33;;;;;;;;;;;;;;;;;;1043320;28;19924;-77
2024/04/07 03:16:03;;;;;;;;;;;;;;;;;;1043811;28;19969;-78
2024/04/07 03:16:33;;;;;;;;;;;;;;;;;;1044680;28;19912;-78
2024/04/07 03:17:04;;;;;;;;;;;;;;;;;;1044920;28;20335;-78
2024/04/07 03:17:34;;;;;;;;;;;;;;;;;;1041917;28;20309;-78
2024/04/07 03:18:04;;;;;;;;;;;;;;;;;;1042312;28;20338;-78
2024/04/07 03:18:34;;;;;;;;;;;;;;;;;;1046447;28;19913;-78
2024/04/07 03:19:04;;;;;;;;;;;;;;;;;;1046607;28;19912;-78
2024/04/07 03:19:35;;;;;;;;;;;;;;;;;;1044732;28;19959;-78
2024/04/07 03:20:05;;;;;;;;;;;;;;;;;;1044364;28;19925;-77
2024/04/07 03:20:35;;;;;;;;;;;;;;;;;;1040012;28;19997;-77
2024/04/07 03:21:05;;;;;;;;;;;;;;;;;;1040296;28;19917;-78
2024/04/07 03:21:36;;;;;;;;;;;;;;;;;;1043866;28;19919;-78
2024/04/07 03:22:06;;;;;;;;;;;;;;;;;;1045736;28;19935;-78
2024/04/07 03:22:36;;;;;;;;;;;;;;;;;;1044664;28;19917;-78
2024/04/07 03:23:07;;;;;;;;;;;;;;;;;;1044592;28;19926;-78
2024/04/07 03:23:37;;;;;;;;;;;;;;;;;;1044723;28;20333;-78
2024/04/07 03:24:07;;;;;;;;;;;;;;;;;;1044394;28;19913;-78
2024/04/07 03:24:37;;;;;;;;;;;;;;;;;;1044678;28;19913;-78
2024/04/07 03:25:08;;;;;;;;;;;;;;;;;;1044841;28;19971;-78
2024/04/07 03:25:39;;;;;;;;;;;;;;;;;;1044573;28;19919;-78
2024/04/07 03:26:09;;;;;;;;;;;;;;;;;;1043033;28;19913;-78
2024/04/07 03:26:39;;;;;;;;;;;;;;;;;;1045756;28;19912;-79
2024/04/07 03:27:10;;;;;;;;;;;;;;;;;;1043458;28;20332;-78
2024/04/07 03:27:40;;;;;;;;;;;;;;;;;;1041322;28;19924;-78
2024/04/07 03:28:10;;;;;;;;;;;;;;;;;;1044501;28;19963;-78
2024/04/07 03:28:41;;;;;;;;;;;;;;;;;;1040861;28;19912;-78
2024/04/07 03:29:11;;;;;;;;;;;;;;;;;;1040570;28;19913;-77
2024/04/07 03:29:41;;;;;;;;;;;;;;;;;;1040333;28;19919;-79
2024/04/07 03:30:12;;;;;;;;;;;;;;;;;;1038615;28;19918;-78
2024/04/07 03:30:42;;;;;;;;;;;;;;;;;;1037851;28;20392;-78
2024/04/07 03:31:12;;;;;;;;;;;;;;;;;;1042800;28;19917;-78